createdAt,value
2018-12-31T00:00:31.898Z,42.07
2018-12-31T00:03:00.571Z,45.90
2018-12-31T00:05:29.259Z,49.97
2018-12-31T00:07:57.946Z,51.83
2018-12-31T00:10:27.077Z,56.20
2018-12-31T00:12:55.745Z,62.37
2018-12-31T00:15:24.509Z,59.77
2018-12-31T00:17:53.204Z,53.23
2018-12-31T00:20:21.885Z,59.53
2018-12-31T00:22:50.963Z,57.67
2018-12-31T00:25:19.689Z,47.23
2018-12-31T00:27:48.392Z,47.70
2018-12-31T00:30:17.141Z,56.18
2018-12-31T00:32:45.832Z,47.80
2018-12-31T00:35:14.984Z,49.63
2018-12-31T00:37:43.630Z,50.77
2018-12-31T00:40:12.467Z,48.43
2018-12-31T00:42:41.184Z,51.70
2018-12-31T00:45:09.848Z,47.27
2018-12-31T00:47:38.520Z,47.23
2018-12-31T00:50:08.638Z,45.20
2018-12-31T00:52:37.307Z,52.10
2018-12-31T00:55:05.984Z,45.37
2018-12-31T00:57:34.859Z,42.73
2018-12-31T01:00:03.535Z,42.50
2018-12-31T01:02:32.479Z,47.93
2018-12-31T01:05:01.158Z,44.20
2018-12-31T01:07:29.889Z,42.97
2018-12-31T01:09:58.566Z,38.63
2018-12-31T01:12:27.285Z,39.77
2018-12-31T01:14:55.963Z,47.23
2018-12-31T01:17:24.612Z,42.17
2018-12-31T01:19:53.382Z,43.47
2018-12-31T01:22:22.078Z,48.40
2018-12-31T01:24:50.866Z,36.20
2018-12-31T01:27:19.509Z,33.58
2018-12-31T01:29:48.208Z,37.20
2018-12-31T01:32:16.903Z,35.33
2018-12-31T01:34:47.156Z,38.07
2018-12-31T01:37:15.868Z,31.60
2018-12-31T01:39:44.565Z,35.43
2018-12-31T01:42:13.210Z,38.87
2018-12-31T01:44:41.939Z,40.43
2018-12-31T01:47:10.617Z,30.17
2018-12-31T01:49:39.306Z,40.93
2018-12-31T01:52:08.002Z,35.63
2018-12-31T01:54:36.692Z,32.40
2018-12-31T01:57:05.411Z,31.57
2018-12-31T01:59:34.046Z,41.47
2018-12-31T02:02:04.485Z,34.20
2018-12-31T02:04:33.106Z,36.47
2018-12-31T02:07:01.706Z,34.17
2018-12-31T02:09:30.383Z,32.83
2018-12-31T02:11:59.048Z,32.87
2018-12-31T02:14:27.810Z,40.77
2018-12-31T02:16:57.117Z,38.33
2018-12-31T02:19:25.793Z,34.60
2018-12-31T02:21:54.496Z,33.90
2018-12-31T02:24:23.212Z,33.27
2018-12-31T02:26:51.882Z,38.70
2018-12-31T02:29:20.568Z,34.20
2018-12-31T02:31:49.651Z,38.50
2018-12-31T02:34:18.341Z,37.43
2018-12-31T02:36:48.043Z,39.67
2018-12-31T02:39:16.742Z,42.60
2018-12-31T02:41:45.427Z,37.80
2018-12-31T02:44:14.089Z,42.37
2018-12-31T02:46:42.780Z,40.83
2018-12-31T02:49:11.504Z,35.63
2018-12-31T02:51:40.186Z,37.60
2018-12-31T02:54:08.900Z,34.07
2018-12-31T02:56:37.601Z,35.03
2018-12-31T02:59:06.274Z,43.87
2018-12-31T03:01:34.978Z,35.37
2018-12-31T03:04:03.642Z,43.13
2018-12-31T03:06:32.822Z,37.67
2018-12-31T03:09:01.506Z,44.73
2018-12-31T03:11:30.165Z,33.63
2018-12-31T03:13:58.845Z,38.63
2018-12-31T03:16:27.513Z,33.07
2018-12-31T03:18:56.203Z,37.93
2018-12-31T03:21:24.889Z,35.17
2018-12-31T03:23:53.640Z,30.90
2018-12-31T03:26:22.314Z,39.63
2018-12-31T03:28:51.012Z,36.33
2018-12-31T03:31:19.694Z,36.13
2018-12-31T03:33:48.386Z,37.30
2018-12-31T03:36:17.007Z,43.10
2018-12-31T03:38:45.652Z,38.67
2018-12-31T03:41:14.382Z,36.23
2018-12-31T03:43:43.122Z,32.47
2018-12-31T03:46:11.790Z,32.50
2018-12-31T03:48:40.481Z,38.77
2018-12-31T03:51:09.167Z,34.23
2018-12-31T03:53:37.868Z,32.57
2018-12-31T03:56:06.537Z,34.17
2018-12-31T03:58:35.495Z,34.17
2018-12-31T04:01:04.186Z,33.60
2018-12-31T04:03:32.846Z,34.80
2018-12-31T04:06:01.533Z,36.27
2018-12-31T04:08:30.206Z,37.07
2018-12-31T04:10:58.931Z,36.27
2018-12-31T04:13:27.594Z,34.57
2018-12-31T04:15:56.754Z,35.73
2018-12-31T04:18:25.455Z,36.50
2018-12-31T04:20:54.119Z,37.27
2018-12-31T04:23:22.885Z,38.73
2018-12-31T04:25:51.533Z,29.23
2018-12-31T04:28:23.285Z,33.07
2018-12-31T04:30:54.227Z,35.57
2018-12-31T04:33:22.888Z,33.70
2018-12-31T04:35:51.620Z,35.53
2018-12-31T04:38:21.604Z,38.17
2018-12-31T04:40:50.351Z,31.80
2018-12-31T04:43:22.040Z,35.63
2018-12-31T04:45:50.729Z,26.20
2018-12-31T04:48:19.510Z,37.03
2018-12-31T04:50:48.176Z,36.17
2018-12-31T04:53:16.909Z,37.73
2018-12-31T04:55:45.633Z,31.33
2018-12-31T04:58:22.787Z,41.87
2018-12-31T05:00:44.635Z,18.20
2018-12-31T05:03:13.306Z,39.43
2018-12-31T05:05:43.601Z,37.20
2018-12-31T05:08:12.264Z,42.03
2018-12-31T05:10:40.941Z,47.07
2018-12-31T05:13:09.676Z,39.43
2018-12-31T05:15:38.360Z,43.30
2018-12-31T05:18:07.022Z,40.43
2018-12-31T05:20:35.758Z,39.50
2018-12-31T05:23:05.576Z,46.33
2018-12-31T05:25:34.507Z,28.67
2018-12-31T05:28:03.514Z,42.17
2018-12-31T05:30:32.231Z,46.67
2018-12-31T05:33:00.883Z,48.70
2018-12-31T05:35:29.620Z,43.60
2018-12-31T05:37:58.320Z,47.23
2018-12-31T05:40:27.075Z,45.07
2018-12-31T05:42:56.070Z,43.97
2018-12-31T05:45:24.828Z,53.00
2018-12-31T05:47:53.486Z,52.53
2018-12-31T05:50:22.214Z,57.27
2018-12-31T05:52:50.903Z,55.33
2018-12-31T05:55:19.575Z,55.27
2018-12-31T05:57:48.528Z,51.30
2018-12-31T06:00:17.224Z,57.67
2018-12-31T06:02:45.892Z,59.60
2018-12-31T06:05:14.809Z,57.00
2018-12-31T06:07:43.465Z,60.13
2018-12-31T06:10:12.722Z,59.77
2018-12-31T06:12:41.454Z,56.13
2018-12-31T06:15:10.130Z,61.63
2018-12-31T06:17:39.184Z,62.03
2018-12-31T06:20:07.862Z,63.43
2018-12-31T06:22:36.545Z,57.93
2018-12-31T06:25:05.357Z,60.80
2018-12-31T06:27:34.745Z,59.20
2018-12-31T06:30:04.169Z,58.40
2018-12-31T06:32:32.917Z,59.90
2018-12-31T06:35:01.590Z,73.67
2018-12-31T06:37:30.295Z,63.47
2018-12-31T06:39:59.122Z,51.93
2018-12-31T06:42:27.788Z,58.53
2018-12-31T06:44:56.560Z,60.23
2018-12-31T06:47:25.706Z,46.97
2018-12-31T06:49:54.367Z,56.47
2018-12-31T06:52:23.067Z,56.67
2018-12-31T06:54:51.798Z,58.77
2018-12-31T06:57:20.513Z,50.07
2018-12-31T06:59:49.184Z,62.83
2018-12-31T07:02:18.336Z,62.17
2018-12-31T07:04:47.065Z,61.50
2018-12-31T07:07:15.791Z,57.07
2018-12-31T07:09:44.902Z,50.63
2018-12-31T07:12:13.718Z,53.63
2018-12-31T07:14:42.388Z,61.60
2018-12-31T07:17:11.180Z,52.33
2018-12-31T07:19:40.510Z,60.53
2018-12-31T07:22:09.280Z,55.43
2018-12-31T07:24:38.229Z,57.43
2018-12-31T07:27:07.058Z,57.90
2018-12-31T07:29:35.689Z,50.87
2018-12-31T07:32:05.926Z,64.15
2018-12-31T07:34:34.722Z,69.40
2018-12-31T07:37:03.411Z,61.23
2018-12-31T07:39:33.631Z,66.57
2018-12-31T07:42:02.330Z,69.77
2018-12-31T07:44:32.368Z,68.97
2018-12-31T07:47:01.059Z,62.37
2018-12-31T07:49:29.744Z,56.87
2018-12-31T07:51:58.439Z,67.20
2018-12-31T07:54:27.139Z,58.70
2018-12-31T07:56:55.848Z,63.03
2018-12-31T07:59:24.805Z,59.70
2018-12-31T08:01:53.474Z,51.40
2018-12-31T08:04:22.141Z,60.07
2018-12-31T08:06:50.907Z,61.37
2018-12-31T08:09:19.616Z,60.37
2018-12-31T08:11:48.293Z,70.27
2018-12-31T08:14:17.040Z,70.27
2018-12-31T08:16:45.703Z,66.83
2018-12-31T08:19:14.391Z,71.60
2018-12-31T08:21:43.095Z,64.63
2018-12-31T08:24:11.762Z,62.47
2018-12-31T08:26:40.445Z,65.77
2018-12-31T08:29:09.158Z,59.27
2018-12-31T08:31:37.805Z,70.17
2018-12-31T08:34:06.480Z,61.13
2018-12-31T08:36:35.151Z,79.62
2018-12-31T08:39:05.533Z,73.33
2018-12-31T08:41:34.267Z,74.77
2018-12-31T08:44:03.517Z,77.30
2018-12-31T08:46:32.332Z,87.07
2018-12-31T08:49:00.999Z,90.73
2018-12-31T08:51:29.692Z,89.30
2018-12-31T08:53:58.409Z,79.63
2018-12-31T08:56:27.135Z,76.07
2018-12-31T08:58:58.301Z,80.50
2018-12-31T09:01:27.012Z,89.87
2018-12-31T09:03:55.778Z,81.57
2018-12-31T09:06:24.450Z,84.20
2018-12-31T09:08:53.150Z,79.10
2018-12-31T09:11:21.820Z,73.80
2018-12-31T09:13:50.703Z,71.93
2018-12-31T09:16:19.387Z,68.13
2018-12-31T09:18:48.077Z,60.67
2018-12-31T09:21:16.795Z,69.73
2018-12-31T09:23:45.556Z,76.17
2018-12-31T09:26:14.222Z,67.87
2018-12-31T09:28:42.902Z,69.63
2018-12-31T09:31:11.547Z,60.23
2018-12-31T09:33:40.229Z,70.87
2018-12-31T09:36:08.875Z,61.43
2018-12-31T09:38:37.527Z,56.73
2018-12-31T09:41:06.417Z,68.50
2018-12-31T09:43:35.174Z,64.07
2018-12-31T09:46:03.846Z,60.33
2018-12-31T09:48:32.544Z,46.07
2018-12-31T09:51:01.208Z,46.77
2018-12-31T09:53:29.882Z,60.23
2018-12-31T09:55:58.546Z,56.67
2018-12-31T09:58:27.366Z,64.57
2018-12-31T10:00:55.986Z,50.17
2018-12-31T10:03:24.646Z,51.23
2018-12-31T10:05:53.322Z,57.17
2018-12-31T10:08:21.994Z,59.40
2018-12-31T10:10:50.662Z,57.13
2018-12-31T10:13:19.392Z,52.87
2018-12-31T10:15:48.329Z,42.20
2018-12-31T10:18:17.339Z,63.77
2018-12-31T10:20:45.998Z,74.80
2018-12-31T10:23:14.680Z,74.17
2018-12-31T10:25:43.524Z,71.40
2018-12-31T10:28:12.208Z,71.43
2018-12-31T10:30:40.873Z,67.87
2018-12-31T10:33:10.172Z,66.20
2018-12-31T10:35:38.825Z,63.30
2018-12-31T10:38:07.514Z,67.47
2018-12-31T10:40:36.381Z,59.93
2018-12-31T10:43:05.059Z,55.63
2018-12-31T10:45:33.711Z,60.43
2018-12-31T10:48:02.436Z,52.60
2018-12-31T10:50:31.106Z,54.10
2018-12-31T10:52:59.755Z,58.07
2018-12-31T10:55:28.624Z,57.33
2018-12-31T10:57:57.364Z,56.83
2018-12-31T11:00:26.068Z,53.03
2018-12-31T11:02:55.282Z,55.23
2018-12-31T11:05:23.912Z,65.20
2018-12-31T11:07:52.638Z,60.90
2018-12-31T11:10:21.398Z,72.97
2018-12-31T11:12:50.023Z,68.80
2018-12-31T11:15:21.214Z,60.37
2018-12-31T11:17:49.947Z,67.73
2018-12-31T11:20:18.682Z,65.13
2018-12-31T11:22:47.614Z,60.80
2018-12-31T11:25:16.316Z,55.93
2018-12-31T11:27:44.998Z,69.50
2018-12-31T11:30:14.134Z,66.30
2018-12-31T11:32:42.789Z,70.97
2018-12-31T11:35:11.467Z,63.57
2018-12-31T11:37:40.168Z,73.77
2018-12-31T11:40:08.816Z,63.50
2018-12-31T11:42:38.021Z,71.70
2018-12-31T11:45:07.651Z,75.27
2018-12-31T11:47:36.381Z,70.77
2018-12-31T11:50:05.071Z,73.73
2018-12-31T11:52:33.827Z,75.80
2018-12-31T11:55:03.804Z,78.30
2018-12-31T11:57:32.458Z,78.30
2018-12-31T12:00:01.111Z,72.93
2018-12-31T12:02:29.803Z,72.30
2018-12-31T12:04:58.444Z,77.03
2018-12-31T12:07:27.177Z,66.93
2018-12-31T12:09:55.850Z,76.57
2018-12-31T12:12:24.777Z,68.10
2018-12-31T12:14:53.458Z,72.57
2018-12-31T12:17:22.130Z,62.40
2018-12-31T12:19:50.855Z,66.03
2018-12-31T12:22:19.585Z,70.20
2018-12-31T12:24:48.595Z,66.17
2018-12-31T12:27:17.316Z,65.70
2018-12-31T12:29:45.983Z,55.10
2018-12-31T12:32:14.653Z,63.27
2018-12-31T12:34:43.387Z,72.42
2018-12-31T12:37:12.722Z,63.37
2018-12-31T12:39:41.393Z,65.50
2018-12-31T12:42:10.555Z,54.07
2018-12-31T12:44:39.251Z,62.93
2018-12-31T12:47:08.342Z,72.17
2018-12-31T12:49:37.403Z,69.50
2018-12-31T12:52:06.072Z,62.17
2018-12-31T12:54:34.736Z,69.80
2018-12-31T12:57:03.424Z,61.13
2018-12-31T12:59:32.173Z,63.53
2018-12-31T13:02:01.264Z,55.63
2018-12-31T13:04:29.922Z,53.37
2018-12-31T13:06:58.621Z,50.80
2018-12-31T13:09:27.271Z,49.87
2018-12-31T13:11:56.633Z,53.87
2018-12-31T13:14:25.622Z,48.00
2018-12-31T13:16:54.568Z,64.63
2018-12-31T13:19:23.245Z,49.50
2018-12-31T13:21:51.908Z,58.10
2018-12-31T13:24:20.679Z,54.13
2018-12-31T13:26:50.011Z,50.33
2018-12-31T13:29:18.817Z,51.47
2018-12-31T13:31:47.532Z,47.20
2018-12-31T13:34:16.181Z,52.70
2018-12-31T13:36:44.828Z,60.97
2018-12-31T13:39:14.006Z,51.00
2018-12-31T13:41:43.093Z,56.77
2018-12-31T13:44:11.842Z,53.93
2018-12-31T13:46:40.528Z,60.13
2018-12-31T13:49:09.212Z,59.40
2018-12-31T13:51:39.559Z,59.43
2018-12-31T13:54:08.745Z,63.03
2018-12-31T13:56:37.399Z,52.37
2018-12-31T13:59:06.112Z,59.03
2018-12-31T14:01:34.795Z,56.47
2018-12-31T14:04:04.001Z,58.97
2018-12-31T14:06:33.431Z,54.73
2018-12-31T14:09:05.380Z,52.27
2018-12-31T14:11:35.527Z,51.17
2018-12-31T14:14:04.255Z,58.07
2018-12-31T14:16:32.984Z,47.93
2018-12-31T14:19:03.533Z,52.03
2018-12-31T14:21:32.431Z,57.93
2018-12-31T14:24:01.235Z,59.23
2018-12-31T14:26:45.889Z,63.13
2018-12-31T14:29:14.600Z,48.77
2018-12-31T14:31:43.373Z,50.70
2018-12-31T14:34:14.533Z,50.30
2018-12-31T14:36:46.902Z,54.40
2018-12-31T14:39:20.201Z,53.77
2018-12-31T14:41:48.906Z,58.03
2018-12-31T14:44:17.642Z,58.70
2018-12-31T14:46:46.302Z,52.00
2018-12-31T14:49:15.090Z,57.00
2018-12-31T14:51:43.854Z,57.80
2018-12-31T14:54:12.894Z,63.03
2018-12-31T14:56:41.656Z,59.43
2018-12-31T14:59:10.334Z,55.23
2018-12-31T15:01:39.588Z,55.90
2018-12-31T15:04:08.436Z,61.10
2018-12-31T15:06:37.237Z,57.33
2018-12-31T15:09:07.643Z,57.57
2018-12-31T15:11:36.307Z,67.73
2018-12-31T15:14:05.919Z,70.47
2018-12-31T15:16:34.653Z,62.87
2018-12-31T15:19:03.336Z,60.07
2018-12-31T15:21:31.999Z,66.27
2018-12-31T15:24:00.679Z,62.97
2018-12-31T15:26:29.545Z,58.30
2018-12-31T15:28:58.232Z,63.00
2018-12-31T15:31:26.909Z,59.53
2018-12-31T15:33:56.755Z,64.30
2018-12-31T15:36:25.553Z,61.80
2018-12-31T15:38:54.673Z,59.00
2018-12-31T15:41:23.432Z,69.20
2018-12-31T15:43:53.513Z,65.63
2018-12-31T15:46:22.215Z,58.33
2018-12-31T15:48:50.923Z,74.03
2018-12-31T15:51:19.629Z,62.40
2018-12-31T15:53:48.330Z,61.03
2018-12-31T15:56:16.997Z,63.87
2018-12-31T15:58:45.719Z,64.87
2018-12-31T16:01:14.368Z,67.53
2018-12-31T16:03:43.285Z,66.90
2018-12-31T16:06:11.958Z,67.20
2018-12-31T16:08:40.644Z,60.30
2018-12-31T16:11:09.535Z,69.13
2018-12-31T16:13:38.288Z,67.03
2018-12-31T16:16:07.465Z,69.10
2018-12-31T16:18:36.151Z,76.17
2018-12-31T16:21:06.387Z,62.73
2018-12-31T16:23:35.057Z,65.87
2018-12-31T16:26:03.775Z,72.47
2018-12-31T16:28:33.080Z,70.33
2018-12-31T16:31:01.744Z,56.60
2018-12-31T16:33:30.430Z,63.53
2018-12-31T16:35:59.304Z,62.00
2018-12-31T16:38:30.220Z,64.47
2018-12-31T16:40:59.201Z,65.07
2018-12-31T16:43:27.946Z,61.67
2018-12-31T16:45:56.842Z,63.90
2018-12-31T16:48:25.515Z,64.63
2018-12-31T16:50:54.206Z,69.87
2018-12-31T16:53:23.199Z,62.80
2018-12-31T16:55:55.684Z,54.40
2018-12-31T16:58:24.301Z,59.83
2018-12-31T17:00:52.989Z,62.83
2018-12-31T17:03:21.808Z,54.93
2018-12-31T17:05:51.443Z,52.30
2018-12-31T17:08:20.136Z,52.83
2018-12-31T17:10:48.855Z,49.53
2018-12-31T17:13:17.585Z,54.63
2018-12-31T17:15:46.255Z,62.77
2018-12-31T17:18:14.952Z,54.37
2018-12-31T17:20:43.821Z,49.50
2018-12-31T17:23:12.493Z,48.63
2018-12-31T17:25:44.467Z,62.63
2018-12-31T17:28:13.236Z,77.12
2018-12-31T17:30:41.975Z,60.90
2018-12-31T17:33:10.673Z,70.83
2018-12-31T17:35:39.422Z,59.47
2018-12-31T17:38:08.195Z,69.47
2018-12-31T17:40:36.868Z,60.97
2018-12-31T17:43:06.129Z,54.90
2018-12-31T17:45:34.999Z,60.10
2018-12-31T17:48:03.760Z,70.13
2018-12-31T17:50:32.468Z,58.93
2018-12-31T17:53:01.207Z,56.73
2018-12-31T17:55:29.905Z,55.13
2018-12-31T17:57:58.588Z,57.80
2018-12-31T18:00:27.260Z,46.90
2018-12-31T18:02:55.954Z,48.33
2018-12-31T18:05:24.653Z,44.67
2018-12-31T18:07:53.334Z,40.50
2018-12-31T18:10:22.438Z,47.43
2018-12-31T18:12:51.131Z,46.27
2018-12-31T18:15:19.857Z,48.43
2018-12-31T18:17:48.545Z,45.37
2018-12-31T18:20:17.204Z,44.57
2018-12-31T18:22:46.387Z,47.73
2018-12-31T18:25:15.053Z,40.23
2018-12-31T18:27:43.785Z,48.58
2018-12-31T18:30:12.656Z,45.27
2018-12-31T18:32:42.897Z,33.53
2018-12-31T18:35:12.268Z,34.40
2018-12-31T18:37:41.962Z,35.73
2018-12-31T18:40:11.182Z,41.40
2018-12-31T18:42:39.848Z,43.43
2018-12-31T18:45:08.866Z,34.57
2018-12-31T18:47:37.911Z,39.23
2018-12-31T18:50:06.597Z,24.77
2018-12-31T18:52:35.257Z,27.73
2018-12-31T18:55:05.461Z,27.73
2018-12-31T18:57:34.190Z,36.40
2018-12-31T19:00:03.270Z,31.13
2018-12-31T19:02:31.945Z,36.70
2018-12-31T19:05:00.646Z,35.53
2018-12-31T19:07:29.411Z,32.60
2018-12-31T19:09:58.123Z,36.80
2018-12-31T19:12:29.401Z,45.00
2018-12-31T19:14:58.066Z,34.97
2018-12-31T19:17:26.757Z,32.30
2018-12-31T19:19:55.469Z,27.97
2018-12-31T19:22:24.125Z,33.27
2018-12-31T19:24:53.246Z,33.10
2018-12-31T19:27:22.987Z,35.33
2018-12-31T19:29:51.745Z,29.97
2018-12-31T19:32:20.483Z,40.73
2018-12-31T19:34:49.212Z,37.63
2018-12-31T19:37:18.081Z,30.73
2018-12-31T19:39:49.566Z,38.87
2018-12-31T19:42:18.360Z,46.80
2018-12-31T19:44:47.047Z,40.52
2018-12-31T19:47:15.730Z,38.17
2018-12-31T19:49:44.416Z,35.43
2018-12-31T19:52:13.100Z,34.23
2018-12-31T19:54:41.807Z,35.77
2018-12-31T19:57:13.227Z,38.07
2018-12-31T19:59:41.983Z,36.20
2018-12-31T20:02:12.248Z,42.93
2018-12-31T20:04:41.321Z,60.47
2018-12-31T20:07:10.078Z,35.57
2018-12-31T20:09:38.789Z,39.97
2018-12-31T20:12:07.454Z,48.87
2018-12-31T20:14:36.131Z,151.67
2018-12-31T20:17:05.509Z,47.13
2018-12-31T20:19:34.290Z,35.53
2018-12-31T20:22:03.018Z,32.37
2018-12-31T20:24:31.697Z,44.77
2018-12-31T20:27:00.389Z,43.30
2018-12-31T20:29:35.607Z,42.70
2018-12-31T20:32:04.348Z,32.00
2018-12-31T20:34:33.112Z,32.33
2018-12-31T20:37:01.776Z,30.37
2018-12-31T20:39:30.614Z,28.67
2018-12-31T20:42:00.868Z,26.10
2018-12-31T20:44:29.565Z,34.45
2018-12-31T20:46:58.264Z,28.47
2018-12-31T20:49:28.297Z,28.97
2018-12-31T20:51:58.126Z,28.10
2018-12-31T20:54:27.822Z,26.93
2018-12-31T20:56:56.805Z,28.40
2018-12-31T20:59:25.609Z,29.50
2018-12-31T21:01:57.394Z,26.43
2018-12-31T21:04:26.869Z,34.03
2018-12-31T21:06:55.697Z,28.97
2018-12-31T21:09:25.159Z,23.93
2018-12-31T21:11:53.900Z,26.53
2018-12-31T21:14:22.627Z,25.73
2018-12-31T21:16:51.361Z,27.30
2018-12-31T21:19:20.020Z,29.40
2018-12-31T21:21:49.180Z,59.87
2018-12-31T21:24:17.964Z,62.20
2018-12-31T21:26:47.503Z,27.33
2018-12-31T21:29:18.018Z,22.73
2018-12-31T21:31:46.818Z,23.17
2018-12-31T21:34:17.742Z,22.73
2018-12-31T21:36:46.430Z,33.13
2018-12-31T21:39:15.110Z,25.93
2018-12-31T21:41:43.800Z,24.93
2018-12-31T21:44:12.890Z,25.80
2018-12-31T21:46:41.662Z,19.77
2018-12-31T21:49:12.310Z,24.10
2018-12-31T21:51:42.214Z,24.70
2018-12-31T21:54:10.913Z,29.40
2018-12-31T21:56:39.577Z,26.80
2018-12-31T21:59:08.245Z,27.43
2018-12-31T22:01:37.329Z,25.60
2018-12-31T22:04:06.004Z,23.60
2018-12-31T22:06:34.867Z,28.73
2018-12-31T22:09:03.591Z,27.93
2018-12-31T22:11:32.267Z,114.07
2018-12-31T22:14:01.149Z,43.40
2018-12-31T22:16:29.820Z,160.50
2018-12-31T22:18:58.507Z,137.37
2018-12-31T22:21:27.259Z,95.70
2018-12-31T22:23:55.918Z,93.73
2018-12-31T22:26:28.380Z,52.87
2018-12-31T22:28:57.081Z,58.33
2018-12-31T22:31:25.754Z,54.43
2018-12-31T22:33:54.723Z,42.87
2018-12-31T22:36:23.431Z,49.23
2018-12-31T22:38:52.618Z,46.60
2018-12-31T22:41:22.631Z,49.07
2018-12-31T22:43:51.318Z,101.83
2018-12-31T22:46:20.297Z,55.80
2018-12-31T22:48:51.038Z,48.53
2018-12-31T22:51:20.523Z,50.30
2018-12-31T22:53:53.118Z,53.37
2018-12-31T22:56:21.785Z,48.50
2018-12-31T22:58:53.149Z,50.83
2018-12-31T23:01:21.808Z,48.17
2018-12-31T23:03:50.917Z,65.10
2018-12-31T23:06:19.597Z,42.33
2018-12-31T23:08:56.354Z,48.17
2018-12-31T23:11:43.195Z,46.17
2018-12-31T23:17:19.130Z,60.77
2018-12-31T23:19:48.328Z,63.13
2018-12-31T23:22:17.050Z,70.10
2018-12-31T23:24:45.759Z,65.07
2018-12-31T23:27:14.536Z,68.90
2018-12-31T23:29:43.227Z,85.47
2018-12-31T23:32:12.364Z,57.30
2018-12-31T23:34:41.060Z,56.50
2018-12-31T23:37:09.745Z,72.03
2018-12-31T23:39:38.472Z,67.43
2018-12-31T23:42:07.156Z,51.10
2018-12-31T23:44:35.867Z,49.70
2018-12-31T23:47:04.573Z,50.93
2018-12-31T23:49:33.253Z,53.10
2018-12-31T23:52:01.923Z,51.40
2018-12-31T23:54:30.637Z,51.70
2018-12-31T23:56:59.314Z,59.80
2018-12-31T23:59:28.005Z,62.23
